sensor_id;sensor_type;location;lat;lon;timestamp;temperature;humidity
23120;DHT22;11729;50.836;4.330;2022-07-23T00:02:05;19.00;99.90
23120;DHT22;11729;50.836;4.330;2022-07-23T00:04:32;19.10;99.90
23120;DHT22;11729;50.836;4.330;2022-07-23T00:06:58;19.10;99.90
23120;DHT22;11729;50.836;4.330;2022-07-23T00:09:23;18.90;99.90
23120;DHT22;11729;50.836;4.330;2022-07-23T00:11:49;18.90;99.90
23120;DHT22;11729;50.836;4.330;2022-07-23T00:14:14;18.90;99.90
23120;DHT22;11729;50.836;4.330;2022-07-23T00:16:40;18.80;99.90
23120;DHT22;11729;50.836;4.330;2022-07-23T00:19:06;18.80;99.90
23120;DHT22;11729;50.836;4.330;2022-07-23T00:21:31;18.90;99.90
23120;DHT22;11729;50.836;4.330;2022-07-23T00:23:57;18.90;99.90
23120;DHT22;11729;50.836;4.330;2022-07-23T00:26:22;18.80;99.90
23120;DHT22;11729;50.836;4.330;2022-07-23T00:28:48;18.80;99.90
23120;DHT22;11729;50.836;4.330;2022-07-23T00:31:15;18.70;99.90
23120;DHT22;11729;50.836;4.330;2022-07-23T00:33:42;18.70;99.90
23120;DHT22;11729;50.836;4.330;2022-07-23T00:36:07;18.70;99.90
23120;DHT22;11729;50.836;4.330;2022-07-23T00:38:33;18.60;99.90
23120;DHT22;11729;50.836;4.330;2022-07-23T00:40:59;18.50;99.90
23120;DHT22;11729;50.836;4.330;2022-07-23T00:43:25;18.50;99.90
23120;DHT22;11729;50.836;4.330;2022-07-23T00:45:51;18.50;99.90
23120;DHT22;11729;50.836;4.330;2022-07-23T00:48:16;18.50;99.90
23120;DHT22;11729;50.836;4.330;2022-07-23T00:50:43;18.60;99.90
23120;DHT22;11729;50.836;4.330;2022-07-23T00:53:09;18.50;99.90
23120;DHT22;11729;50.836;4.330;2022-07-23T00:55:35;18.50;99.90
23120;DHT22;11729;50.836;4.330;2022-07-23T00:58:01;18.60;99.90
23120;DHT22;11729;50.836;4.330;2022-07-23T01:00:28;18.50;99.90
23120;DHT22;11729;50.836;4.330;2022-07-23T01:02:54;18.50;99.90
23120;DHT22;11729;50.836;4.330;2022-07-23T01:05:19;18.50;99.90
23120;DHT22;11729;50.836;4.330;2022-07-23T01:07:50;18.50;99.90
23120;DHT22;11729;50.836;4.330;2022-07-23T01:10:16;18.50;99.90
23120;DHT22;11729;50.836;4.330;2022-07-23T01:13:10;18.60;99.90
23120;DHT22;11729;50.836;4.330;2022-07-23T01:15:38;18.50;99.90
23120;DHT22;11729;50.836;4.330;2022-07-23T01:18:04;18.50;99.90
23120;DHT22;11729;50.836;4.330;2022-07-23T01:20:31;18.40;99.90
23120;DHT22;11729;50.836;4.330;2022-07-23T01:22:58;18.30;99.90
23120;DHT22;11729;50.836;4.330;2022-07-23T01:25:24;18.30;99.90
23120;DHT22;11729;50.836;4.330;2022-07-23T01:27:50;18.20;99.90
23120;DHT22;11729;50.836;4.330;2022-07-23T01:30:16;18.30;99.90
23120;DHT22;11729;50.836;4.330;2022-07-23T01:32:42;18.20;99.90
23120;DHT22;11729;50.836;4.330;2022-07-23T01:35:08;18.30;99.90
23120;DHT22;11729;50.836;4.330;2022-07-23T01:37:35;18.20;99.90
23120;DHT22;11729;50.836;4.330;2022-07-23T01:40:01;18.10;99.90
23120;DHT22;11729;50.836;4.330;2022-07-23T01:42:26;18.30;99.90
23120;DHT22;11729;50.836;4.330;2022-07-23T01:44:52;18.10;99.90
23120;DHT22;11729;50.836;4.330;2022-07-23T01:47:18;18.00;99.90
23120;DHT22;11729;50.836;4.330;2022-07-23T01:49:43;18.00;99.90
23120;DHT22;11729;50.836;4.330;2022-07-23T01:52:09;18.00;99.90
23120;DHT22;11729;50.836;4.330;2022-07-23T01:54:38;18.10;99.90
23120;DHT22;11729;50.836;4.330;2022-07-23T01:57:05;18.10;99.90
23120;DHT22;11729;50.836;4.330;2022-07-23T01:59:30;18.00;99.90
23120;DHT22;11729;50.836;4.330;2022-07-23T02:01:56;18.10;99.90
23120;DHT22;11729;50.836;4.330;2022-07-23T02:04:23;18.20;99.90
23120;DHT22;11729;50.836;4.330;2022-07-23T02:06:51;17.90;99.90
23120;DHT22;11729;50.836;4.330;2022-07-23T02:09:17;17.90;99.90
23120;DHT22;11729;50.836;4.330;2022-07-23T02:11:44;18.00;99.90
23120;DHT22;11729;50.836;4.330;2022-07-23T02:14:10;17.80;99.90
23120;DHT22;11729;50.836;4.330;2022-07-23T02:16:35;17.80;99.90
23120;DHT22;11729;50.836;4.330;2022-07-23T02:19:02;17.90;99.90
23120;DHT22;11729;50.836;4.330;2022-07-23T02:21:27;17.90;99.90
23120;DHT22;11729;50.836;4.330;2022-07-23T02:23:53;17.90;99.90
23120;DHT22;11729;50.836;4.330;2022-07-23T02:26:18;17.80;99.90
23120;DHT22;11729;50.836;4.330;2022-07-23T02:28:44;17.90;99.90
23120;DHT22;11729;50.836;4.330;2022-07-23T02:31:09;17.90;99.90
23120;DHT22;11729;50.836;4.330;2022-07-23T02:33:35;17.80;99.90
23120;DHT22;11729;50.836;4.330;2022-07-23T02:36:01;17.70;99.90
23120;DHT22;11729;50.836;4.330;2022-07-23T02:38:26;17.70;99.90
23120;DHT22;11729;50.836;4.330;2022-07-23T02:40:52;17.70;99.90
23120;DHT22;11729;50.836;4.330;2022-07-23T02:43:17;17.80;99.90
23120;DHT22;11729;50.836;4.330;2022-07-23T02:45:43;18.00;99.90
23120;DHT22;11729;50.836;4.330;2022-07-23T02:48:08;17.90;99.90
23120;DHT22;11729;50.836;4.330;2022-07-23T02:50:34;17.90;99.90
23120;DHT22;11729;50.836;4.330;2022-07-23T02:53:01;17.90;99.90
23120;DHT22;11729;50.836;4.330;2022-07-23T02:55:26;17.90;99.90
23120;DHT22;11729;50.836;4.330;2022-07-23T02:57:52;17.90;99.90
23120;DHT22;11729;50.836;4.330;2022-07-23T03:00:18;18.00;99.90
23120;DHT22;11729;50.836;4.330;2022-07-23T03:02:43;17.90;99.90
23120;DHT22;11729;50.836;4.330;2022-07-23T03:05:10;17.80;99.90
23120;DHT22;11729;50.836;4.330;2022-07-23T03:07:35;17.80;99.90
23120;DHT22;11729;50.836;4.330;2022-07-23T03:10:02;17.80;99.90
23120;DHT22;11729;50.836;4.330;2022-07-23T03:12:27;17.80;99.90
23120;DHT22;11729;50.836;4.330;2022-07-23T03:14:53;17.70;99.90
23120;DHT22;11729;50.836;4.330;2022-07-23T03:17:19;17.70;99.90
23120;DHT22;11729;50.836;4.330;2022-07-23T03:19:45;17.70;99.90
23120;DHT22;11729;50.836;4.330;2022-07-23T03:22:10;17.70;99.90
23120;DHT22;11729;50.836;4.330;2022-07-23T03:24:36;17.60;99.90
23120;DHT22;11729;50.836;4.330;2022-07-23T03:27:23;17.60;99.90
23120;DHT22;11729;50.836;4.330;2022-07-23T03:29:54;17.70;99.90
23120;DHT22;11729;50.836;4.330;2022-07-23T03:32:21;17.70;99.90
23120;DHT22;11729;50.836;4.330;2022-07-23T03:34:47;17.70;99.90
23120;DHT22;11729;50.836;4.330;2022-07-23T03:37:13;17.80;99.90
23120;DHT22;11729;50.836;4.330;2022-07-23T03:39:39;17.70;99.90
23120;DHT22;11729;50.836;4.330;2022-07-23T03:42:04;17.70;99.90
23120;DHT22;11729;50.836;4.330;2022-07-23T03:44:31;17.70;99.90
23120;DHT22;11729;50.836;4.330;2022-07-23T03:46:57;17.70;99.90
23120;DHT22;11729;50.836;4.330;2022-07-23T03:49:22;17.70;99.90
23120;DHT22;11729;50.836;4.330;2022-07-23T03:51:48;17.70;99.90
23120;DHT22;11729;50.836;4.330;2022-07-23T03:54:13;17.70;99.90
23120;DHT22;11729;50.836;4.330;2022-07-23T03:56:39;17.80;99.90
23120;DHT22;11729;50.836;4.330;2022-07-23T03:59:05;17.80;99.90
23120;DHT22;11729;50.836;4.330;2022-07-23T04:01:31;17.90;99.90
23120;DHT22;11729;50.836;4.330;2022-07-23T04:03:56;18.00;99.90
23120;DHT22;11729;50.836;4.330;2022-07-23T04:06:22;18.00;99.90
23120;DHT22;11729;50.836;4.330;2022-07-23T04:08:47;18.20;99.90
23120;DHT22;11729;50.836;4.330;2022-07-23T04:11:14;18.30;99.90
23120;DHT22;11729;50.836;4.330;2022-07-23T04:13:40;18.10;99.90
23120;DHT22;11729;50.836;4.330;2022-07-23T04:16:05;18.30;99.90
23120;DHT22;11729;50.836;4.330;2022-07-23T04:18:32;18.40;99.90
23120;DHT22;11729;50.836;4.330;2022-07-23T04:20:57;18.50;99.90
23120;DHT22;11729;50.836;4.330;2022-07-23T04:23:23;18.30;99.90
23120;DHT22;11729;50.836;4.330;2022-07-23T04:25:49;18.10;99.90
23120;DHT22;11729;50.836;4.330;2022-07-23T04:28:14;17.90;99.90
23120;DHT22;11729;50.836;4.330;2022-07-23T04:30:40;17.90;99.90
23120;DHT22;11729;50.836;4.330;2022-07-23T04:33:06;18.00;99.90
23120;DHT22;11729;50.836;4.330;2022-07-23T04:35:33;18.10;99.90
23120;DHT22;11729;50.836;4.330;2022-07-23T04:37:58;18.10;99.90
23120;DHT22;11729;50.836;4.330;2022-07-23T04:40:25;18.10;99.90
23120;DHT22;11729;50.836;4.330;2022-07-23T04:42:50;18.20;99.90
23120;DHT22;11729;50.836;4.330;2022-07-23T04:45:16;18.10;99.90
23120;DHT22;11729;50.836;4.330;2022-07-23T04:47:42;18.10;99.90
23120;DHT22;11729;50.836;4.330;2022-07-23T04:50:08;18.20;99.90
23120;DHT22;11729;50.836;4.330;2022-07-23T04:52:33;18.20;99.90
23120;DHT22;11729;50.836;4.330;2022-07-23T04:54:59;18.20;99.90
23120;DHT22;11729;50.836;4.330;2022-07-23T04:57:24;18.30;99.90
23120;DHT22;11729;50.836;4.330;2022-07-23T04:59:50;18.30;99.90
23120;DHT22;11729;50.836;4.330;2022-07-23T05:02:16;18.30;99.90
23120;DHT22;11729;50.836;4.330;2022-07-23T05:04:41;18.40;99.90
23120;DHT22;11729;50.836;4.330;2022-07-23T05:07:07;18.60;99.90
23120;DHT22;11729;50.836;4.330;2022-07-23T05:09:33;18.80;99.90
23120;DHT22;11729;50.836;4.330;2022-07-23T05:12:00;18.90;99.90
23120;DHT22;11729;50.836;4.330;2022-07-23T05:14:26;19.10;99.90
23120;DHT22;11729;50.836;4.330;2022-07-23T05:16:53;19.30;99.90
23120;DHT22;11729;50.836;4.330;2022-07-23T05:19:18;19.60;99.90
23120;DHT22;11729;50.836;4.330;2022-07-23T05:21:45;19.80;99.90
23120;DHT22;11729;50.836;4.330;2022-07-23T05:24:13;19.80;99.90
23120;DHT22;11729;50.836;4.330;2022-07-23T05:26:39;19.60;99.90
23120;DHT22;11729;50.836;4.330;2022-07-23T05:29:04;19.70;99.90
23120;DHT22;11729;50.836;4.330;2022-07-23T05:31:30;19.70;99.90
23120;DHT22;11729;50.836;4.330;2022-07-23T05:33:56;20.00;99.90
23120;DHT22;11729;50.836;4.330;2022-07-23T05:36:21;19.90;99.90
23120;DHT22;11729;50.836;4.330;2022-07-23T05:38:48;20.00;99.90
23120;DHT22;11729;50.836;4.330;2022-07-23T05:41:14;20.40;99.90
23120;DHT22;11729;50.836;4.330;2022-07-23T05:43:39;20.20;99.90
23120;DHT22;11729;50.836;4.330;2022-07-23T05:46:05;20.40;99.90
23120;DHT22;11729;50.836;4.330;2022-07-23T05:48:31;20.20;99.90
23120;DHT22;11729;50.836;4.330;2022-07-23T05:50:57;20.20;99.90
23120;DHT22;11729;50.836;4.330;2022-07-23T05:53:22;20.20;99.90
23120;DHT22;11729;50.836;4.330;2022-07-23T05:55:48;20.20;99.90
23120;DHT22;11729;50.836;4.330;2022-07-23T05:58:14;20.30;99.90
23120;DHT22;11729;50.836;4.330;2022-07-23T06:00:39;20.70;99.90
23120;DHT22;11729;50.836;4.330;2022-07-23T06:03:05;21.70;99.90
23120;DHT22;11729;50.836;4.330;2022-07-23T06:05:31;22.50;99.90
23120;DHT22;11729;50.836;4.330;2022-07-23T06:07:56;22.80;99.90
23120;DHT22;11729;50.836;4.330;2022-07-23T06:10:22;23.20;99.90
23120;DHT22;11729;50.836;4.330;2022-07-23T06:12:47;24.00;99.90
23120;DHT22;11729;50.836;4.330;2022-07-23T06:15:14;25.10;99.90
23120;DHT22;11729;50.836;4.330;2022-07-23T06:17:40;26.30;99.90
23120;DHT22;11729;50.836;4.330;2022-07-23T06:20:07;27.50;99.90
23120;DHT22;11729;50.836;4.330;2022-07-23T06:22:34;28.30;99.90
23120;DHT22;11729;50.836;4.330;2022-07-23T06:24:59;29.10;99.90
23120;DHT22;11729;50.836;4.330;2022-07-23T06:27:25;29.80;99.90
23120;DHT22;11729;50.836;4.330;2022-07-23T06:29:50;30.60;97.30
23120;DHT22;11729;50.836;4.330;2022-07-23T06:32:16;30.70;95.70
23120;DHT22;11729;50.836;4.330;2022-07-23T06:34:41;31.60;94.30
23120;DHT22;11729;50.836;4.330;2022-07-23T06:37:07;32.10;92.00
23120;DHT22;11729;50.836;4.330;2022-07-23T06:39:33;32.30;91.70
23120;DHT22;11729;50.836;4.330;2022-07-23T06:41:58;32.70;89.50
23120;DHT22;11729;50.836;4.330;2022-07-23T06:44:24;32.20;89.20
23120;DHT22;11729;50.836;4.330;2022-07-23T06:46:50;32.50;86.70
23120;DHT22;11729;50.836;4.330;2022-07-23T06:49:15;33.00;85.90
23120;DHT22;11729;50.836;4.330;2022-07-23T06:51:41;32.80;84.90
23120;DHT22;11729;50.836;4.330;2022-07-23T06:54:06;33.40;83.20
23120;DHT22;11729;50.836;4.330;2022-07-23T06:56:33;33.70;80.30
23120;DHT22;11729;50.836;4.330;2022-07-23T06:58:58;33.90;78.60
23120;DHT22;11729;50.836;4.330;2022-07-23T07:01:24;34.10;78.20
23120;DHT22;11729;50.836;4.330;2022-07-23T07:03:49;34.30;76.10
23120;DHT22;11729;50.836;4.330;2022-07-23T07:06:16;34.60;73.60
23120;DHT22;11729;50.836;4.330;2022-07-23T07:08:43;35.20;72.80
23120;DHT22;11729;50.836;4.330;2022-07-23T07:11:09;35.50;70.70
23120;DHT22;11729;50.836;4.330;2022-07-23T07:13:35;35.40;69.30
23120;DHT22;11729;50.836;4.330;2022-07-23T07:16:01;35.50;68.30
23120;DHT22;11729;50.836;4.330;2022-07-23T07:18:27;35.70;66.00
23120;DHT22;11729;50.836;4.330;2022-07-23T07:20:52;35.30;65.80
23120;DHT22;11729;50.836;4.330;2022-07-23T07:23:18;34.70;68.30
23120;DHT22;11729;50.836;4.330;2022-07-23T07:25:46;34.80;67.70
23120;DHT22;11729;50.836;4.330;2022-07-23T07:28:12;35.10;67.40
23120;DHT22;11729;50.836;4.330;2022-07-23T07:30:38;35.70;67.20
23120;DHT22;11729;50.836;4.330;2022-07-23T07:33:03;36.00;65.60
23120;DHT22;11729;50.836;4.330;2022-07-23T07:35:29;35.20;63.90
23120;DHT22;11729;50.836;4.330;2022-07-23T07:37:56;35.50;65.10
23120;DHT22;11729;50.836;4.330;2022-07-23T07:40:22;35.90;63.40
23120;DHT22;11729;50.836;4.330;2022-07-23T07:42:49;35.60;64.80
23120;DHT22;11729;50.836;4.330;2022-07-23T07:45:16;35.30;63.40
23120;DHT22;11729;50.836;4.330;2022-07-23T07:47:42;36.00;63.20
23120;DHT22;11729;50.836;4.330;2022-07-23T07:50:08;36.60;61.80
23120;DHT22;11729;50.836;4.330;2022-07-23T07:52:35;36.80;60.40
23120;DHT22;11729;50.836;4.330;2022-07-23T07:55:05;36.90;60.50
23120;DHT22;11729;50.836;4.330;2022-07-23T07:57:31;36.80;59.20
23120;DHT22;11729;50.836;4.330;2022-07-23T07:59:56;36.10;59.60
23120;DHT22;11729;50.836;4.330;2022-07-23T08:02:22;36.50;61.70
23120;DHT22;11729;50.836;4.330;2022-07-23T08:04:48;37.10;60.50
23120;DHT22;11729;50.836;4.330;2022-07-23T08:07:14;36.40;58.90
23120;DHT22;11729;50.836;4.330;2022-07-23T08:09:40;35.90;59.20
23120;DHT22;11729;50.836;4.330;2022-07-23T08:12:06;35.70;60.80
23120;DHT22;11729;50.836;4.330;2022-07-23T08:14:31;35.70;60.20
23120;DHT22;11729;50.836;4.330;2022-07-23T08:16:57;35.70;60.50
23120;DHT22;11729;50.836;4.330;2022-07-23T08:19:23;36.50;59.50
23120;DHT22;11729;50.836;4.330;2022-07-23T08:21:48;37.00;58.30
23120;DHT22;11729;50.836;4.330;2022-07-23T08:24:14;36.50;57.00
23120;DHT22;11729;50.836;4.330;2022-07-23T08:26:39;36.70;59.10
23120;DHT22;11729;50.836;4.330;2022-07-23T08:29:06;37.30;56.60
23120;DHT22;11729;50.836;4.330;2022-07-23T08:31:32;37.60;56.90
23120;DHT22;11729;50.836;4.330;2022-07-23T08:34:00;37.70;55.10
23120;DHT22;11729;50.836;4.330;2022-07-23T08:36:28;37.30;54.70
23120;DHT22;11729;50.836;4.330;2022-07-23T08:38:57;37.20;56.30
23120;DHT22;11729;50.836;4.330;2022-07-23T08:41:22;37.20;57.00
23120;DHT22;11729;50.836;4.330;2022-07-23T08:43:48;37.50;55.10
23120;DHT22;11729;50.836;4.330;2022-07-23T08:46:14;37.40;54.70
23120;DHT22;11729;50.836;4.330;2022-07-23T08:48:42;37.40;53.20
23120;DHT22;11729;50.836;4.330;2022-07-23T08:51:08;36.80;54.50
23120;DHT22;11729;50.836;4.330;2022-07-23T08:53:35;37.40;54.00
23120;DHT22;11729;50.836;4.330;2022-07-23T08:56:03;37.80;53.80
23120;DHT22;11729;50.836;4.330;2022-07-23T08:58:30;37.20;53.40
23120;DHT22;11729;50.836;4.330;2022-07-23T09:00:56;37.40;54.70
23120;DHT22;11729;50.836;4.330;2022-07-23T09:03:27;38.30;54.00
23120;DHT22;11729;50.836;4.330;2022-07-23T09:05:54;38.70;52.50
23120;DHT22;11729;50.836;4.330;2022-07-23T09:08:27;39.00;51.50
23120;DHT22;11729;50.836;4.330;2022-07-23T09:11:00;38.00;51.30
23120;DHT22;11729;50.836;4.330;2022-07-23T09:16:00;37.30;53.00
23120;DHT22;11729;50.836;4.330;2022-07-23T09:18:36;36.90;52.60
23120;DHT22;11729;50.836;4.330;2022-07-23T09:21:11;36.80;53.50
23120;DHT22;11729;50.836;4.330;2022-07-23T09:29:05;36.10;54.40
23120;DHT22;11729;50.836;4.330;2022-07-23T09:34:13;35.50;55.90
23120;DHT22;11729;50.836;4.330;2022-07-23T09:36:40;35.50;54.80
23120;DHT22;11729;50.836;4.330;2022-07-23T09:39:06;36.10;55.10
23120;DHT22;11729;50.836;4.330;2022-07-23T09:41:46;36.50;54.30
23120;DHT22;11729;50.836;4.330;2022-07-23T09:44:19;36.50;52.90
23120;DHT22;11729;50.836;4.330;2022-07-23T09:46:47;36.70;53.10
23120;DHT22;11729;50.836;4.330;2022-07-23T09:49:18;37.10;52.90
23120;DHT22;11729;50.836;4.330;2022-07-23T09:51:56;37.70;51.10
23120;DHT22;11729;50.836;4.330;2022-07-23T09:56:49;37.10;52.90
23120;DHT22;11729;50.836;4.330;2022-07-23T09:59:16;37.90;51.60
23120;DHT22;11729;50.836;4.330;2022-07-23T10:01:43;38.10;51.50
23120;DHT22;11729;50.836;4.330;2022-07-23T10:04:11;38.20;51.80
23120;DHT22;11729;50.836;4.330;2022-07-23T10:06:40;38.10;51.00
23120;DHT22;11729;50.836;4.330;2022-07-23T10:09:08;38.10;51.60
23120;DHT22;11729;50.836;4.330;2022-07-23T10:11:36;38.20;50.60
23120;DHT22;11729;50.836;4.330;2022-07-23T10:14:03;37.40;49.30
23120;DHT22;11729;50.836;4.330;2022-07-23T10:16:30;37.50;49.80
23120;DHT22;11729;50.836;4.330;2022-07-23T10:18:57;36.10;52.90
23120;DHT22;11729;50.836;4.330;2022-07-23T10:21:37;36.60;53.20
23120;DHT22;11729;50.836;4.330;2022-07-23T10:27:10;36.90;50.70
23120;DHT22;11729;50.836;4.330;2022-07-23T10:35:31;37.40;52.70
23120;DHT22;11729;50.836;4.330;2022-07-23T10:38:11;37.60;51.60
23120;DHT22;11729;50.836;4.330;2022-07-23T10:40:56;37.30;51.60
23120;DHT22;11729;50.836;4.330;2022-07-23T10:43:25;37.20;52.00
23120;DHT22;11729;50.836;4.330;2022-07-23T10:45:52;37.20;49.40
23120;DHT22;11729;50.836;4.330;2022-07-23T10:48:25;36.00;51.00
23120;DHT22;11729;50.836;4.330;2022-07-23T10:51:13;35.60;51.90
23120;DHT22;11729;50.836;4.330;2022-07-23T10:59:20;35.00;52.60
23120;DHT22;11729;50.836;4.330;2022-07-23T11:01:46;35.60;51.60
23120;DHT22;11729;50.836;4.330;2022-07-23T11:04:16;36.40;54.40
23120;DHT22;11729;50.836;4.330;2022-07-23T11:15:09;36.50;51.30
23120;DHT22;11729;50.836;4.330;2022-07-23T11:20:23;37.00;50.90
23120;DHT22;11729;50.836;4.330;2022-07-23T11:22:51;37.70;49.50
23120;DHT22;11729;50.836;4.330;2022-07-23T11:28:17;37.60;50.50
23120;DHT22;11729;50.836;4.330;2022-07-23T11:30:47;36.50;49.30
23120;DHT22;11729;50.836;4.330;2022-07-23T11:33:16;36.50;51.60
23120;DHT22;11729;50.836;4.330;2022-07-23T11:35:45;37.20;50.60
23120;DHT22;11729;50.836;4.330;2022-07-23T11:38:21;36.10;50.10
23120;DHT22;11729;50.836;4.330;2022-07-23T11:40:49;36.00;51.60
23120;DHT22;11729;50.836;4.330;2022-07-23T11:43:16;35.10;52.30
23120;DHT22;11729;50.836;4.330;2022-07-23T11:45:51;35.80;53.70
23120;DHT22;11729;50.836;4.330;2022-07-23T11:48:20;35.60;50.90
23120;DHT22;11729;50.836;4.330;2022-07-23T11:50:47;35.60;52.50
23120;DHT22;11729;50.836;4.330;2022-07-23T11:53:13;36.10;52.60
23120;DHT22;11729;50.836;4.330;2022-07-23T11:55:39;36.40;52.10
23120;DHT22;11729;50.836;4.330;2022-07-23T11:58:05;37.10;49.70
23120;DHT22;11729;50.836;4.330;2022-07-23T12:00:32;36.40;50.80
23120;DHT22;11729;50.836;4.330;2022-07-23T12:02:59;36.90;50.60
23120;DHT22;11729;50.836;4.330;2022-07-23T12:05:28;37.10;49.90
23120;DHT22;11729;50.836;4.330;2022-07-23T12:07:55;37.50;49.50
23120;DHT22;11729;50.836;4.330;2022-07-23T12:10:22;38.00;49.30
23120;DHT22;11729;50.836;4.330;2022-07-23T12:12:51;38.70;48.20
23120;DHT22;11729;50.836;4.330;2022-07-23T12:15:27;38.60;45.80
23120;DHT22;11729;50.836;4.330;2022-07-23T12:17:54;37.00;47.50
23120;DHT22;11729;50.836;4.330;2022-07-23T12:20:26;35.60;50.40
23120;DHT22;11729;50.836;4.330;2022-07-23T12:22:56;35.40;50.60
23120;DHT22;11729;50.836;4.330;2022-07-23T12:25:28;34.50;53.10
23120;DHT22;11729;50.836;4.330;2022-07-23T12:28:21;34.20;53.40
23120;DHT22;11729;50.836;4.330;2022-07-23T12:30:55;34.90;54.10
23120;DHT22;11729;50.836;4.330;2022-07-23T12:33:35;35.70;52.90
23120;DHT22;11729;50.836;4.330;2022-07-23T12:36:04;36.20;50.60
23120;DHT22;11729;50.836;4.330;2022-07-23T12:38:46;36.60;51.10
23120;DHT22;11729;50.836;4.330;2022-07-23T12:41:12;36.80;49.40
23120;DHT22;11729;50.836;4.330;2022-07-23T12:43:43;37.90;49.70
23120;DHT22;11729;50.836;4.330;2022-07-23T12:46:13;38.10;48.60
23120;DHT22;11729;50.836;4.330;2022-07-23T12:48:52;37.50;47.80
23120;DHT22;11729;50.836;4.330;2022-07-23T12:51:31;37.70;48.20
23120;DHT22;11729;50.836;4.330;2022-07-23T12:54:08;38.20;47.90
23120;DHT22;11729;50.836;4.330;2022-07-23T12:56:40;38.30;48.40
23120;DHT22;11729;50.836;4.330;2022-07-23T12:59:14;38.20;48.10
23120;DHT22;11729;50.836;4.330;2022-07-23T13:01:45;38.30;46.70
23120;DHT22;11729;50.836;4.330;2022-07-23T13:04:18;38.60;46.60
23120;DHT22;11729;50.836;4.330;2022-07-23T13:09:15;39.10;45.40
23120;DHT22;11729;50.836;4.330;2022-07-23T13:11:41;38.30;47.10
23120;DHT22;11729;50.836;4.330;2022-07-23T13:14:07;38.00;48.80
23120;DHT22;11729;50.836;4.330;2022-07-23T13:16:33;38.30;48.30
23120;DHT22;11729;50.836;4.330;2022-07-23T13:18:59;38.30;47.10
23120;DHT22;11729;50.836;4.330;2022-07-23T13:21:27;38.60;46.20
23120;DHT22;11729;50.836;4.330;2022-07-23T13:23:53;39.00;47.30
23120;DHT22;11729;50.836;4.330;2022-07-23T13:26:19;39.80;45.40
23120;DHT22;11729;50.836;4.330;2022-07-23T13:28:45;39.70;44.60
23120;DHT22;11729;50.836;4.330;2022-07-23T13:31:11;39.70;44.70
23120;DHT22;11729;50.836;4.330;2022-07-23T13:33:36;39.30;45.00
23120;DHT22;11729;50.836;4.330;2022-07-23T13:36:04;38.20;45.90
23120;DHT22;11729;50.836;4.330;2022-07-23T13:38:30;37.20;47.10
23120;DHT22;11729;50.836;4.330;2022-07-23T13:40:56;36.80;47.80
23120;DHT22;11729;50.836;4.330;2022-07-23T13:43:23;35.80;49.60
23120;DHT22;11729;50.836;4.330;2022-07-23T13:45:49;34.70;51.60
23120;DHT22;11729;50.836;4.330;2022-07-23T13:48:15;34.30;53.10
23120;DHT22;11729;50.836;4.330;2022-07-23T13:50:42;34.30;52.80
23120;DHT22;11729;50.836;4.330;2022-07-23T13:53:11;33.80;53.10
23120;DHT22;11729;50.836;4.330;2022-07-23T13:55:38;33.50;54.70
23120;DHT22;11729;50.836;4.330;2022-07-23T13:58:05;33.40;55.60
23120;DHT22;11729;50.836;4.330;2022-07-23T14:00:33;33.20;56.30
23120;DHT22;11729;50.836;4.330;2022-07-23T14:02:59;32.80;56.70
23120;DHT22;11729;50.836;4.330;2022-07-23T14:05:25;32.50;57.40
23120;DHT22;11729;50.836;4.330;2022-07-23T14:07:52;32.40;59.90
23120;DHT22;11729;50.836;4.330;2022-07-23T14:10:20;32.30;58.70
23120;DHT22;11729;50.836;4.330;2022-07-23T14:12:47;32.30;59.60
23120;DHT22;11729;50.836;4.330;2022-07-23T14:15:13;32.30;58.70
23120;DHT22;11729;50.836;4.330;2022-07-23T14:17:40;32.00;60.50
23120;DHT22;11729;50.836;4.330;2022-07-23T14:20:07;32.20;60.70
23120;DHT22;11729;50.836;4.330;2022-07-23T14:22:33;32.20;60.20
23120;DHT22;11729;50.836;4.330;2022-07-23T14:24:59;32.20;59.90
23120;DHT22;11729;50.836;4.330;2022-07-23T14:27:26;32.20;59.60
23120;DHT22;11729;50.836;4.330;2022-07-23T14:29:52;31.50;59.50
23120;DHT22;11729;50.836;4.330;2022-07-23T14:32:18;31.70;60.80
23120;DHT22;11729;50.836;4.330;2022-07-23T14:34:43;31.60;60.90
23120;DHT22;11729;50.836;4.330;2022-07-23T14:37:10;31.30;61.50
23120;DHT22;11729;50.836;4.330;2022-07-23T14:39:36;31.30;62.50
23120;DHT22;11729;50.836;4.330;2022-07-23T14:42:02;31.40;61.40
23120;DHT22;11729;50.836;4.330;2022-07-23T14:44:28;31.50;62.80
23120;DHT22;11729;50.836;4.330;2022-07-23T14:46:53;31.50;61.40
23120;DHT22;11729;50.836;4.330;2022-07-23T14:49:19;31.40;62.50
23120;DHT22;11729;50.836;4.330;2022-07-23T14:51:45;31.20;62.30
23120;DHT22;11729;50.836;4.330;2022-07-23T14:54:10;31.10;63.00
23120;DHT22;11729;50.836;4.330;2022-07-23T14:56:36;31.20;62.50
23120;DHT22;11729;50.836;4.330;2022-07-23T14:59:04;31.30;62.50
23120;DHT22;11729;50.836;4.330;2022-07-23T15:01:29;31.40;62.30
23120;DHT22;11729;50.836;4.330;2022-07-23T15:03:55;31.50;64.20
23120;DHT22;11729;50.836;4.330;2022-07-23T15:06:20;31.60;62.60
23120;DHT22;11729;50.836;4.330;2022-07-23T15:08:46;31.70;59.50
23120;DHT22;11729;50.836;4.330;2022-07-23T15:11:12;31.70;60.10
23120;DHT22;11729;50.836;4.330;2022-07-23T15:13:39;31.70;60.30
23120;DHT22;11729;50.836;4.330;2022-07-23T15:16:05;31.60;60.20
23120;DHT22;11729;50.836;4.330;2022-07-23T15:18:31;31.20;58.70
23120;DHT22;11729;50.836;4.330;2022-07-23T15:20:57;31.20;59.70
23120;DHT22;11729;50.836;4.330;2022-07-23T15:23:23;31.20;62.30
23120;DHT22;11729;50.836;4.330;2022-07-23T15:25:49;31.00;63.80
23120;DHT22;11729;50.836;4.330;2022-07-23T15:28:15;31.10;63.70
23120;DHT22;11729;50.836;4.330;2022-07-23T15:30:41;30.70;62.80
23120;DHT22;11729;50.836;4.330;2022-07-23T15:33:07;30.50;65.60
23120;DHT22;11729;50.836;4.330;2022-07-23T15:35:33;30.60;65.80
23120;DHT22;11729;50.836;4.330;2022-07-23T15:37:58;30.20;64.70
23120;DHT22;11729;50.836;4.330;2022-07-23T15:40:24;30.30;65.70
23120;DHT22;11729;50.836;4.330;2022-07-23T15:42:50;30.20;67.30
23120;DHT22;11729;50.836;4.330;2022-07-23T15:45:16;29.50;67.70
23120;DHT22;11729;50.836;4.330;2022-07-23T15:47:42;29.80;67.60
23120;DHT22;11729;50.836;4.330;2022-07-23T15:50:09;29.90;67.60
23120;DHT22;11729;50.836;4.330;2022-07-23T15:52:36;30.00;67.50
23120;DHT22;11729;50.836;4.330;2022-07-23T15:55:03;30.20;66.80
23120;DHT22;11729;50.836;4.330;2022-07-23T15:57:29;30.30;66.20
23120;DHT22;11729;50.836;4.330;2022-07-23T15:59:54;30.30;66.30
23120;DHT22;11729;50.836;4.330;2022-07-23T16:02:23;30.40;66.40
23120;DHT22;11729;50.836;4.330;2022-07-23T16:04:49;29.90;66.00
23120;DHT22;11729;50.836;4.330;2022-07-23T16:07:21;29.90;66.80
23120;DHT22;11729;50.836;4.330;2022-07-23T16:09:48;30.00;68.30
23120;DHT22;11729;50.836;4.330;2022-07-23T16:12:14;30.10;67.10
23120;DHT22;11729;50.836;4.330;2022-07-23T16:14:39;30.00;69.40